Barrowford, United Kingdom
Current Conditions -  °F | °C
As of 2:50 AM on Thursday 27 Nov 2014 (Local Time) from EGNM Reporting Station
Moderate Fog Moderate Fog  
Wind Chill: 43°   Ceiling: Unl
Heat Index: 43°   Visibility: 0.37mi
Dew Point: 43°   Wind: 3mph
Humidity: 100%   Direction: 360°N
Pressure: 29.68"   Gusts: NA
Location:  53.85°N, 2.22°W
Report Text: EGNM 270250Z 36003KT 0600 FG VV/// 06/06 Q1005
Loading
Personal Weather Stations






























Interactive Weather Map New forecast layout! Learn more

10-Day Weather Forecast

Advertisements
Track Severe Weather on mobile